sensor_id;sensor_type;location;lat;lon;timestamp;P1;durP1;ratioP1;P2;durP2;ratioP2
18338;SDS011;9295;44.484;11.240;2023-06-19T00:01:46;11.50;;;7.33;;
18338;SDS011;9295;44.484;11.240;2023-06-19T00:04:15;9.90;;;6.30;;
18338;SDS011;9295;44.484;11.240;2023-06-19T00:06:44;12.23;;;8.00;;
18338;SDS011;9295;44.484;11.240;2023-06-19T00:09:13;11.37;;;7.03;;
18338;SDS011;9295;44.484;11.240;2023-06-19T00:11:42;9.40;;;6.80;;
18338;SDS011;9295;44.484;11.240;2023-06-19T00:14:12;8.93;;;7.23;;
18338;SDS011;9295;44.484;11.240;2023-06-19T00:16:41;9.57;;;6.60;;
18338;SDS011;9295;44.484;11.240;2023-06-19T00:19:09;11.87;;;6.20;;
18338;SDS011;9295;44.484;11.240;2023-06-19T00:21:38;9.63;;;7.00;;
18338;SDS011;9295;44.484;11.240;2023-06-19T00:24:09;8.10;;;6.80;;
18338;SDS011;9295;44.484;11.240;2023-06-19T00:26:38;8.53;;;6.43;;
18338;SDS011;9295;44.484;11.240;2023-06-19T00:29:07;12.27;;;6.67;;
18338;SDS011;9295;44.484;11.240;2023-06-19T00:31:37;11.40;;;7.17;;
18338;SDS011;9295;44.484;11.240;2023-06-19T00:34:07;16.73;;;6.60;;
18338;SDS011;9295;44.484;11.240;2023-06-19T00:36:36;8.63;;;6.40;;
18338;SDS011;9295;44.484;11.240;2023-06-19T00:39:07;10.43;;;6.60;;
18338;SDS011;9295;44.484;11.240;2023-06-19T00:41:38;8.80;;;6.80;;
18338;SDS011;9295;44.484;11.240;2023-06-19T00:44:08;9.40;;;6.93;;
18338;SDS011;9295;44.484;11.240;2023-06-19T00:46:39;9.47;;;7.50;;
18338;SDS011;9295;44.484;11.240;2023-06-19T00:49:09;11.70;;;6.90;;
18338;SDS011;9295;44.484;11.240;2023-06-19T00:51:38;10.20;;;6.83;;
18338;SDS011;9295;44.484;11.240;2023-06-19T00:54:06;10.13;;;6.97;;
18338;SDS011;9295;44.484;11.240;2023-06-19T00:56:35;17.10;;;6.77;;
18338;SDS011;9295;44.484;11.240;2023-06-19T00:59:08;7.53;;;5.90;;
18338;SDS011;9295;44.484;11.240;2023-06-19T01:01:48;9.33;;;7.10;;
18338;SDS011;9295;44.484;11.240;2023-06-19T01:04:18;9.27;;;7.57;;
18338;SDS011;9295;44.484;11.240;2023-06-19T01:06:50;7.50;;;5.90;;
18338;SDS011;9295;44.484;11.240;2023-06-19T01:09:26;9.43;;;6.70;;
18338;SDS011;9295;44.484;11.240;2023-06-19T01:12:01;9.13;;;6.40;;
18338;SDS011;9295;44.484;11.240;2023-06-19T01:14:35;11.00;;;7.20;;
18338;SDS011;9295;44.484;11.240;2023-06-19T01:17:08;10.70;;;7.00;;
18338;SDS011;9295;44.484;11.240;2023-06-19T01:19:38;11.43;;;7.00;;
18338;SDS011;9295;44.484;11.240;2023-06-19T01:22:08;11.20;;;7.23;;
18338;SDS011;9295;44.484;11.240;2023-06-19T01:24:37;9.57;;;6.83;;
18338;SDS011;9295;44.484;11.240;2023-06-19T01:27:07;7.23;;;6.10;;
18338;SDS011;9295;44.484;11.240;2023-06-19T01:29:37;12.83;;;8.70;;
18338;SDS011;9295;44.484;11.240;2023-06-19T01:32:07;12.43;;;8.70;;
18338;SDS011;9295;44.484;11.240;2023-06-19T01:34:41;12.20;;;7.77;;
18338;SDS011;9295;44.484;11.240;2023-06-19T01:37:11;14.83;;;6.47;;
18338;SDS011;9295;44.484;11.240;2023-06-19T01:39:41;9.27;;;6.53;;
18338;SDS011;9295;44.484;11.240;2023-06-19T01:42:13;10.60;;;7.10;;
18338;SDS011;9295;44.484;11.240;2023-06-19T01:44:43;10.43;;;6.80;;
18338;SDS011;9295;44.484;11.240;2023-06-19T01:47:13;8.50;;;7.37;;
18338;SDS011;9295;44.484;11.240;2023-06-19T01:49:46;8.93;;;6.50;;
18338;SDS011;9295;44.484;11.240;2023-06-19T01:52:16;10.77;;;6.93;;
18338;SDS011;9295;44.484;11.240;2023-06-19T01:54:45;9.37;;;6.53;;
18338;SDS011;9295;44.484;11.240;2023-06-19T01:57:14;12.63;;;7.10;;
18338;SDS011;9295;44.484;11.240;2023-06-19T01:59:42;9.50;;;6.87;;
18338;SDS011;9295;44.484;11.240;2023-06-19T02:02:11;8.00;;;6.33;;
18338;SDS011;9295;44.484;11.240;2023-06-19T02:04:39;11.07;;;7.23;;
18338;SDS011;9295;44.484;11.240;2023-06-19T02:07:08;8.00;;;6.40;;
18338;SDS011;9295;44.484;11.240;2023-06-19T02:09:38;13.30;;;9.60;;
18338;SDS011;9295;44.484;11.240;2023-06-19T02:12:08;11.73;;;6.90;;
18338;SDS011;9295;44.484;11.240;2023-06-19T02:14:37;11.20;;;6.23;;
18338;SDS011;9295;44.484;11.240;2023-06-19T02:17:05;8.27;;;6.37;;
18338;SDS011;9295;44.484;11.240;2023-06-19T02:19:34;13.93;;;6.07;;
18338;SDS011;9295;44.484;11.240;2023-06-19T02:22:03;8.63;;;6.00;;
18338;SDS011;9295;44.484;11.240;2023-06-19T02:24:33;11.27;;;6.10;;
18338;SDS011;9295;44.484;11.240;2023-06-19T02:27:05;9.50;;;6.60;;
18338;SDS011;9295;44.484;11.240;2023-06-19T02:29:34;10.63;;;6.80;;
18338;SDS011;9295;44.484;11.240;2023-06-19T02:32:04;10.03;;;6.77;;
18338;SDS011;9295;44.484;11.240;2023-06-19T02:34:33;10.97;;;7.03;;
18338;SDS011;9295;44.484;11.240;2023-06-19T02:37:04;9.00;;;6.70;;
18338;SDS011;9295;44.484;11.240;2023-06-19T02:39:36;8.00;;;6.17;;
18338;SDS011;9295;44.484;11.240;2023-06-19T02:42:07;10.20;;;6.70;;
18338;SDS011;9295;44.484;11.240;2023-06-19T02:44:36;16.97;;;6.90;;
18338;SDS011;9295;44.484;11.240;2023-06-19T02:47:04;9.80;;;6.20;;
18338;SDS011;9295;44.484;11.240;2023-06-19T02:49:33;7.93;;;5.87;;
18338;SDS011;9295;44.484;11.240;2023-06-19T02:52:02;13.37;;;6.30;;
18338;SDS011;9295;44.484;11.240;2023-06-19T02:54:31;11.17;;;6.70;;
18338;SDS011;9295;44.484;11.240;2023-06-19T02:57:00;9.87;;;5.77;;
18338;SDS011;9295;44.484;11.240;2023-06-19T02:59:30;11.30;;;6.60;;
18338;SDS011;9295;44.484;11.240;2023-06-19T03:01:59;12.90;;;7.13;;
18338;SDS011;9295;44.484;11.240;2023-06-19T03:04:27;9.93;;;5.90;;
18338;SDS011;9295;44.484;11.240;2023-06-19T03:06:56;10.70;;;6.20;;
18338;SDS011;9295;44.484;11.240;2023-06-19T03:09:24;16.00;;;6.43;;
18338;SDS011;9295;44.484;11.240;2023-06-19T03:11:53;9.80;;;6.10;;
18338;SDS011;9295;44.484;11.240;2023-06-19T03:14:22;10.10;;;7.20;;
18338;SDS011;9295;44.484;11.240;2023-06-19T03:16:52;10.30;;;6.40;;
18338;SDS011;9295;44.484;11.240;2023-06-19T03:19:22;11.13;;;6.67;;
18338;SDS011;9295;44.484;11.240;2023-06-19T03:21:50;9.60;;;6.57;;
18338;SDS011;9295;44.484;11.240;2023-06-19T03:24:19;9.20;;;7.07;;
18338;SDS011;9295;44.484;11.240;2023-06-19T03:26:50;8.87;;;6.60;;
18338;SDS011;9295;44.484;11.240;2023-06-19T03:29:19;12.77;;;6.83;;
18338;SDS011;9295;44.484;11.240;2023-06-19T03:32:06;9.80;;;6.80;;
18338;SDS011;9295;44.484;11.240;2023-06-19T03:34:35;9.83;;;6.63;;
18338;SDS011;9295;44.484;11.240;2023-06-19T03:37:07;10.97;;;7.20;;
18338;SDS011;9295;44.484;11.240;2023-06-19T03:39:36;8.50;;;6.33;;
18338;SDS011;9295;44.484;11.240;2023-06-19T03:42:07;8.00;;;6.10;;
18338;SDS011;9295;44.484;11.240;2023-06-19T03:44:36;8.23;;;6.83;;
18338;SDS011;9295;44.484;11.240;2023-06-19T03:47:07;8.53;;;6.53;;
18338;SDS011;9295;44.484;11.240;2023-06-19T03:49:36;11.33;;;6.57;;
18338;SDS011;9295;44.484;11.240;2023-06-19T03:52:05;9.20;;;6.40;;
18338;SDS011;9295;44.484;11.240;2023-06-19T03:54:34;9.37;;;6.17;;
18338;SDS011;9295;44.484;11.240;2023-06-19T03:57:03;7.80;;;6.37;;
18338;SDS011;9295;44.484;11.240;2023-06-19T03:59:32;8.30;;;6.77;;
18338;SDS011;9295;44.484;11.240;2023-06-19T04:02:00;10.77;;;6.07;;
18338;SDS011;9295;44.484;11.240;2023-06-19T04:04:31;11.00;;;7.43;;
18338;SDS011;9295;44.484;11.240;2023-06-19T04:06:59;7.53;;;6.67;;
18338;SDS011;9295;44.484;11.240;2023-06-19T04:09:28;9.30;;;6.23;;
18338;SDS011;9295;44.484;11.240;2023-06-19T04:11:56;16.37;;;6.23;;
18338;SDS011;9295;44.484;11.240;2023-06-19T04:14:25;11.50;;;6.27;;
18338;SDS011;9295;44.484;11.240;2023-06-19T04:16:54;9.00;;;5.97;;
18338;SDS011;9295;44.484;11.240;2023-06-19T04:19:23;8.03;;;6.27;;
18338;SDS011;9295;44.484;11.240;2023-06-19T04:21:52;12.43;;;6.60;;
18338;SDS011;9295;44.484;11.240;2023-06-19T04:24:22;10.00;;;6.90;;
18338;SDS011;9295;44.484;11.240;2023-06-19T04:26:50;10.40;;;6.60;;
18338;SDS011;9295;44.484;11.240;2023-06-19T04:29:20;8.70;;;6.37;;
18338;SDS011;9295;44.484;11.240;2023-06-19T04:31:49;8.50;;;6.60;;
18338;SDS011;9295;44.484;11.240;2023-06-19T04:34:18;14.77;;;6.93;;
18338;SDS011;9295;44.484;11.240;2023-06-19T04:36:47;9.97;;;6.07;;
18338;SDS011;9295;44.484;11.240;2023-06-19T04:39:17;10.83;;;6.20;;
18338;SDS011;9295;44.484;11.240;2023-06-19T04:41:46;10.63;;;6.57;;
18338;SDS011;9295;44.484;11.240;2023-06-19T04:44:15;10.40;;;5.30;;
18338;SDS011;9295;44.484;11.240;2023-06-19T04:46:43;9.93;;;6.30;;
18338;SDS011;9295;44.484;11.240;2023-06-19T04:49:13;7.90;;;6.13;;
18338;SDS011;9295;44.484;11.240;2023-06-19T04:51:42;8.90;;;5.50;;
18338;SDS011;9295;44.484;11.240;2023-06-19T04:54:10;12.10;;;6.10;;
18338;SDS011;9295;44.484;11.240;2023-06-19T04:56:40;8.17;;;5.53;;
18338;SDS011;9295;44.484;11.240;2023-06-19T04:59:09;7.83;;;5.67;;
18338;SDS011;9295;44.484;11.240;2023-06-19T05:01:37;6.40;;;5.20;;
18338;SDS011;9295;44.484;11.240;2023-06-19T05:04:07;11.10;;;6.43;;
18338;SDS011;9295;44.484;11.240;2023-06-19T05:06:38;10.80;;;5.97;;
18338;SDS011;9295;44.484;11.240;2023-06-19T05:09:06;10.80;;;6.07;;
18338;SDS011;9295;44.484;11.240;2023-06-19T05:11:35;9.80;;;5.80;;
18338;SDS011;9295;44.484;11.240;2023-06-19T05:14:05;8.40;;;5.10;;
18338;SDS011;9295;44.484;11.240;2023-06-19T05:16:33;8.17;;;5.20;;
18338;SDS011;9295;44.484;11.240;2023-06-19T05:19:03;8.50;;;6.10;;
18338;SDS011;9295;44.484;11.240;2023-06-19T05:21:32;7.87;;;5.60;;
18338;SDS011;9295;44.484;11.240;2023-06-19T05:24:00;12.00;;;5.60;;
18338;SDS011;9295;44.484;11.240;2023-06-19T05:26:29;7.10;;;5.37;;
18338;SDS011;9295;44.484;11.240;2023-06-19T05:28:58;8.70;;;5.53;;
18338;SDS011;9295;44.484;11.240;2023-06-19T05:31:28;8.73;;;5.40;;
18338;SDS011;9295;44.484;11.240;2023-06-19T05:33:56;10.80;;;5.63;;
18338;SDS011;9295;44.484;11.240;2023-06-19T05:36:26;7.47;;;5.80;;
18338;SDS011;9295;44.484;11.240;2023-06-19T05:38:54;9.43;;;5.63;;
18338;SDS011;9295;44.484;11.240;2023-06-19T05:41:23;11.67;;;5.60;;
18338;SDS011;9295;44.484;11.240;2023-06-19T05:43:51;7.00;;;5.50;;
18338;SDS011;9295;44.484;11.240;2023-06-19T05:46:20;10.30;;;6.47;;
18338;SDS011;9295;44.484;11.240;2023-06-19T05:48:50;9.17;;;5.80;;
18338;SDS011;9295;44.484;11.240;2023-06-19T05:51:21;13.30;;;5.80;;
18338;SDS011;9295;44.484;11.240;2023-06-19T05:53:49;7.90;;;5.50;;
18338;SDS011;9295;44.484;11.240;2023-06-19T05:56:19;11.47;;;5.70;;
18338;SDS011;9295;44.484;11.240;2023-06-19T05:58:47;8.20;;;5.73;;
18338;SDS011;9295;44.484;11.240;2023-06-19T06:01:16;9.43;;;5.20;;
18338;SDS011;9295;44.484;11.240;2023-06-19T06:03:45;7.63;;;5.47;;
18338;SDS011;9295;44.484;11.240;2023-06-19T06:06:15;7.93;;;5.50;;
18338;SDS011;9295;44.484;11.240;2023-06-19T06:08:44;8.87;;;5.03;;
18338;SDS011;9295;44.484;11.240;2023-06-19T06:11:12;8.60;;;5.80;;
18338;SDS011;9295;44.484;11.240;2023-06-19T06:13:41;7.93;;;5.70;;
18338;SDS011;9295;44.484;11.240;2023-06-19T06:16:10;6.80;;;5.50;;
18338;SDS011;9295;44.484;11.240;2023-06-19T06:18:39;14.03;;;6.27;;
18338;SDS011;9295;44.484;11.240;2023-06-19T06:21:07;11.33;;;6.40;;
18338;SDS011;9295;44.484;11.240;2023-06-19T06:23:38;15.70;;;6.03;;
18338;SDS011;9295;44.484;11.240;2023-06-19T06:26:13;11.40;;;5.90;;
18338;SDS011;9295;44.484;11.240;2023-06-19T06:28:42;8.37;;;5.93;;
18338;SDS011;9295;44.484;11.240;2023-06-19T06:31:10;10.43;;;5.60;;
18338;SDS011;9295;44.484;11.240;2023-06-19T06:33:39;12.40;;;5.90;;
18338;SDS011;9295;44.484;11.240;2023-06-19T06:36:08;12.23;;;6.60;;
18338;SDS011;9295;44.484;11.240;2023-06-19T06:38:44;9.43;;;5.40;;
18338;SDS011;9295;44.484;11.240;2023-06-19T06:41:12;10.73;;;5.67;;
18338;SDS011;9295;44.484;11.240;2023-06-19T06:43:41;9.33;;;6.10;;
18338;SDS011;9295;44.484;11.240;2023-06-19T06:46:10;8.67;;;5.90;;
18338;SDS011;9295;44.484;11.240;2023-06-19T06:48:39;8.63;;;5.70;;
18338;SDS011;9295;44.484;11.240;2023-06-19T06:51:08;9.13;;;5.50;;
18338;SDS011;9295;44.484;11.240;2023-06-19T06:53:37;10.30;;;6.03;;
18338;SDS011;9295;44.484;11.240;2023-06-19T06:56:08;11.83;;;5.53;;
18338;SDS011;9295;44.484;11.240;2023-06-19T06:58:37;8.30;;;5.47;;
18338;SDS011;9295;44.484;11.240;2023-06-19T07:01:06;11.70;;;6.10;;
18338;SDS011;9295;44.484;11.240;2023-06-19T07:03:35;18.80;;;6.40;;
18338;SDS011;9295;44.484;11.240;2023-06-19T07:06:05;8.33;;;5.90;;
18338;SDS011;9295;44.484;11.240;2023-06-19T07:08:35;8.43;;;6.20;;
18338;SDS011;9295;44.484;11.240;2023-06-19T07:11:04;18.17;;;5.53;;
18338;SDS011;9295;44.484;11.240;2023-06-19T07:13:34;14.10;;;6.10;;
18338;SDS011;9295;44.484;11.240;2023-06-19T07:16:02;8.53;;;6.00;;
18338;SDS011;9295;44.484;11.240;2023-06-19T07:18:31;9.77;;;5.80;;
18338;SDS011;9295;44.484;11.240;2023-06-19T07:21:01;11.10;;;6.07;;
18338;SDS011;9295;44.484;11.240;2023-06-19T07:23:34;7.63;;;4.60;;
18338;SDS011;9295;44.484;11.240;2023-06-19T07:26:03;10.30;;;4.63;;
18338;SDS011;9295;44.484;11.240;2023-06-19T07:28:33;6.73;;;4.77;;
18338;SDS011;9295;44.484;11.240;2023-06-19T07:31:03;5.70;;;4.27;;
18338;SDS011;9295;44.484;11.240;2023-06-19T07:33:32;7.10;;;4.50;;
18338;SDS011;9295;44.484;11.240;2023-06-19T07:36:01;11.00;;;3.97;;
18338;SDS011;9295;44.484;11.240;2023-06-19T07:38:30;14.30;;;4.67;;
18338;SDS011;9295;44.484;11.240;2023-06-19T07:40:58;8.33;;;4.40;;
18338;SDS011;9295;44.484;11.240;2023-06-19T07:43:27;7.53;;;4.07;;
18338;SDS011;9295;44.484;11.240;2023-06-19T07:45:57;7.10;;;4.73;;
18338;SDS011;9295;44.484;11.240;2023-06-19T07:48:26;10.00;;;4.77;;
18338;SDS011;9295;44.484;11.240;2023-06-19T07:50:54;8.30;;;4.10;;
18338;SDS011;9295;44.484;11.240;2023-06-19T07:53:23;8.10;;;4.90;;
18338;SDS011;9295;44.484;11.240;2023-06-19T07:55:52;7.17;;;3.70;;
18338;SDS011;9295;44.484;11.240;2023-06-19T07:58:21;6.40;;;4.17;;
18338;SDS011;9295;44.484;11.240;2023-06-19T08:00:50;7.70;;;4.27;;
18338;SDS011;9295;44.484;11.240;2023-06-19T08:03:20;13.43;;;4.23;;
18338;SDS011;9295;44.484;11.240;2023-06-19T08:05:51;6.60;;;4.20;;
18338;SDS011;9295;44.484;11.240;2023-06-19T08:08:20;6.03;;;4.10;;
18338;SDS011;9295;44.484;11.240;2023-06-19T08:10:48;10.10;;;4.63;;
18338;SDS011;9295;44.484;11.240;2023-06-19T08:13:17;12.23;;;4.57;;
18338;SDS011;9295;44.484;11.240;2023-06-19T08:15:46;8.00;;;4.37;;
18338;SDS011;9295;44.484;11.240;2023-06-19T08:18:15;7.10;;;4.07;;
18338;SDS011;9295;44.484;11.240;2023-06-19T08:20:45;6.20;;;4.37;;
18338;SDS011;9295;44.484;11.240;2023-06-19T08:23:14;9.57;;;4.40;;
18338;SDS011;9295;44.484;11.240;2023-06-19T08:25:43;7.60;;;4.60;;
18338;SDS011;9295;44.484;11.240;2023-06-19T08:28:11;6.90;;;4.43;;
18338;SDS011;9295;44.484;11.240;2023-06-19T08:30:41;6.47;;;4.53;;
18338;SDS011;9295;44.484;11.240;2023-06-19T08:33:12;7.30;;;4.20;;
18338;SDS011;9295;44.484;11.240;2023-06-19T08:35:41;10.73;;;4.97;;
18338;SDS011;9295;44.484;11.240;2023-06-19T08:38:12;5.50;;;4.33;;
18338;SDS011;9295;44.484;11.240;2023-06-19T08:40:41;11.67;;;4.33;;
18338;SDS011;9295;44.484;11.240;2023-06-19T08:43:11;7.67;;;3.90;;
18338;SDS011;9295;44.484;11.240;2023-06-19T08:45:40;8.07;;;4.23;;
18338;SDS011;9295;44.484;11.240;2023-06-19T08:48:12;8.83;;;4.43;;
18338;SDS011;9295;44.484;11.240;2023-06-19T08:50:42;10.00;;;4.50;;
18338;SDS011;9295;44.484;11.240;2023-06-19T08:53:12;5.60;;;3.83;;
18338;SDS011;9295;44.484;11.240;2023-06-19T08:55:41;5.60;;;4.00;;
18338;SDS011;9295;44.484;11.240;2023-06-19T08:58:09;7.33;;;4.60;;
18338;SDS011;9295;44.484;11.240;2023-06-19T09:00:38;7.20;;;4.17;;
18338;SDS011;9295;44.484;11.240;2023-06-19T09:03:07;8.23;;;3.87;;
18338;SDS011;9295;44.484;11.240;2023-06-19T09:05:41;5.27;;;4.17;;
18338;SDS011;9295;44.484;11.240;2023-06-19T09:08:19;8.83;;;4.37;;
18338;SDS011;9295;44.484;11.240;2023-06-19T09:10:57;6.80;;;4.63;;
18338;SDS011;9295;44.484;11.240;2023-06-19T09:13:27;5.70;;;4.53;;
18338;SDS011;9295;44.484;11.240;2023-06-19T09:15:58;8.87;;;4.43;;
18338;SDS011;9295;44.484;11.240;2023-06-19T09:18:29;7.60;;;4.10;;
18338;SDS011;9295;44.484;11.240;2023-06-19T09:20:59;11.40;;;4.60;;
18338;SDS011;9295;44.484;11.240;2023-06-19T09:23:29;8.00;;;4.90;;
18338;SDS011;9295;44.484;11.240;2023-06-19T09:26:02;9.10;;;4.87;;
18338;SDS011;9295;44.484;11.240;2023-06-19T09:28:33;5.80;;;4.80;;
18338;SDS011;9295;44.484;11.240;2023-06-19T09:31:02;12.80;;;4.40;;
18338;SDS011;9295;44.484;11.240;2023-06-19T09:33:32;8.27;;;5.30;;
18338;SDS011;9295;44.484;11.240;2023-06-19T09:36:03;7.17;;;4.60;;
18338;SDS011;9295;44.484;11.240;2023-06-19T09:38:35;10.30;;;4.90;;
18338;SDS011;9295;44.484;11.240;2023-06-19T09:41:10;10.10;;;5.03;;
18338;SDS011;9295;44.484;11.240;2023-06-19T09:43:40;7.13;;;4.30;;
18338;SDS011;9295;44.484;11.240;2023-06-19T09:46:14;9.80;;;5.20;;
18338;SDS011;9295;44.484;11.240;2023-06-19T09:48:48;7.70;;;4.60;;
18338;SDS011;9295;44.484;11.240;2023-06-19T09:51:23;6.50;;;4.70;;
18338;SDS011;9295;44.484;11.240;2023-06-19T09:54:00;11.20;;;6.00;;
18338;SDS011;9295;44.484;11.240;2023-06-19T09:56:31;26.33;;;7.00;;
18338;SDS011;9295;44.484;11.240;2023-06-19T09:59:00;17.80;;;5.27;;
18338;SDS011;9295;44.484;11.240;2023-06-19T10:01:30;9.57;;;4.60;;
18338;SDS011;9295;44.484;11.240;2023-06-19T10:04:04;14.83;;;4.33;;
18338;SDS011;9295;44.484;11.240;2023-06-19T10:06:42;8.63;;;4.27;;
18338;SDS011;9295;44.484;11.240;2023-06-19T10:09:13;6.70;;;4.60;;
18338;SDS011;9295;44.484;11.240;2023-06-19T10:11:46;7.40;;;4.30;;
18338;SDS011;9295;44.484;11.240;2023-06-19T10:14:15;18.10;;;5.20;;
18338;SDS011;9295;44.484;11.240;2023-06-19T10:16:45;7.23;;;4.53;;
18338;SDS011;9295;44.484;11.240;2023-06-19T10:19:14;7.17;;;4.30;;
18338;SDS011;9295;44.484;11.240;2023-06-19T10:21:44;9.63;;;4.60;;
18338;SDS011;9295;44.484;11.240;2023-06-19T10:24:16;11.80;;;4.70;;
18338;SDS011;9295;44.484;11.240;2023-06-19T10:26:56;8.73;;;4.90;;
18338;SDS011;9295;44.484;11.240;2023-06-19T10:29:37;6.37;;;4.30;;
18338;SDS011;9295;44.484;11.240;2023-06-19T10:32:07;7.10;;;4.43;;
18338;SDS011;9295;44.484;11.240;2023-06-19T10:34:36;12.63;;;6.30;;
18338;SDS011;9295;44.484;11.240;2023-06-19T10:37:05;10.17;;;5.10;;
18338;SDS011;9295;44.484;11.240;2023-06-19T10:39:35;9.10;;;6.17;;
18338;SDS011;9295;44.484;11.240;2023-06-19T10:42:05;6.27;;;4.60;;
18338;SDS011;9295;44.484;11.240;2023-06-19T10:44:35;9.67;;;5.10;;
18338;SDS011;9295;44.484;11.240;2023-06-19T10:47:04;11.30;;;5.30;;
18338;SDS011;9295;44.484;11.240;2023-06-19T10:49:34;7.60;;;4.77;;
18338;SDS011;9295;44.484;11.240;2023-06-19T10:52:03;9.43;;;4.83;;
18338;SDS011;9295;44.484;11.240;2023-06-19T10:54:32;9.10;;;5.17;;
18338;SDS011;9295;44.484;11.240;2023-06-19T10:57:05;6.70;;;5.43;;
18338;SDS011;9295;44.484;11.240;2023-06-19T10:59:34;6.20;;;5.13;;
18338;SDS011;9295;44.484;11.240;2023-06-19T11:02:03;8.47;;;4.87;;
18338;SDS011;9295;44.484;11.240;2023-06-19T11:04:34;10.00;;;5.87;;
18338;SDS011;9295;44.484;11.240;2023-06-19T11:07:06;8.57;;;6.00;;
18338;SDS011;9295;44.484;11.240;2023-06-19T11:09:36;7.20;;;5.23;;
18338;SDS011;9295;44.484;11.240;2023-06-19T11:12:07;10.80;;;5.43;;
18338;SDS011;9295;44.484;11.240;2023-06-19T11:14:36;7.67;;;5.67;;
18338;SDS011;9295;44.484;11.240;2023-06-19T11:17:06;9.03;;;5.70;;
18338;SDS011;9295;44.484;11.240;2023-06-19T11:19:36;11.20;;;5.67;;
18338;SDS011;9295;44.484;11.240;2023-06-19T11:22:09;10.10;;;4.90;;
18338;SDS011;9295;44.484;11.240;2023-06-19T11:24:43;12.73;;;5.80;;
18338;SDS011;9295;44.484;11.240;2023-06-19T11:27:20;10.57;;;5.20;;
18338;SDS011;9295;44.484;11.240;2023-06-19T11:29:54;9.30;;;5.80;;
18338;SDS011;9295;44.484;11.240;2023-06-19T11:32:29;7.63;;;5.50;;
18338;SDS011;9295;44.484;11.240;2023-06-19T11:35:04;7.00;;;5.23;;
18338;SDS011;9295;44.484;11.240;2023-06-19T11:37:34;13.23;;;5.60;;
18338;SDS011;9295;44.484;11.240;2023-06-19T11:40:03;7.50;;;4.90;;
18338;SDS011;9295;44.484;11.240;2023-06-19T11:42:48;7.37;;;5.50;;
18338;SDS011;9295;44.484;11.240;2023-06-19T11:45:20;6.63;;;5.10;;
18338;SDS011;9295;44.484;11.240;2023-06-19T11:47:49;7.87;;;5.10;;
18338;SDS011;9295;44.484;11.240;2023-06-19T11:50:19;10.13;;;5.70;;
18338;SDS011;9295;44.484;11.240;2023-06-19T11:52:54;13.33;;;5.27;;
18338;SDS011;9295;44.484;11.240;2023-06-19T11:55:26;7.80;;;5.07;;
18338;SDS011;9295;44.484;11.240;2023-06-19T11:57:56;7.17;;;4.80;;
18338;SDS011;9295;44.484;11.240;2023-06-19T12:00:25;8.70;;;5.17;;
18338;SDS011;9295;44.484;11.240;2023-06-19T12:02:54;9.30;;;4.13;;
18338;SDS011;9295;44.484;11.240;2023-06-19T12:05:24;9.57;;;4.90;;
18338;SDS011;9295;44.484;11.240;2023-06-19T12:07:52;8.83;;;5.63;;
18338;SDS011;9295;44.484;11.240;2023-06-19T12:10:21;7.97;;;4.50;;
18338;SDS011;9295;44.484;11.240;2023-06-19T12:12:50;9.77;;;5.20;;
18338;SDS011;9295;44.484;11.240;2023-06-19T12:15:20;8.90;;;4.90;;
18338;SDS011;9295;44.484;11.240;2023-06-19T12:17:50;8.20;;;5.23;;
18338;SDS011;9295;44.484;11.240;2023-06-19T12:20:19;6.03;;;4.83;;
18338;SDS011;9295;44.484;11.240;2023-06-19T12:22:48;6.40;;;4.53;;
18338;SDS011;9295;44.484;11.240;2023-06-19T12:25:18;8.40;;;5.00;;
18338;SDS011;9295;44.484;11.240;2023-06-19T12:27:47;6.70;;;5.57;;
18338;SDS011;9295;44.484;11.240;2023-06-19T12:30:22;10.17;;;5.97;;
18338;SDS011;9295;44.484;11.240;2023-06-19T12:32:52;8.73;;;4.90;;
18338;SDS011;9295;44.484;11.240;2023-06-19T12:35:20;7.00;;;4.90;;
18338;SDS011;9295;44.484;11.240;2023-06-19T12:37:49;10.00;;;5.10;;
18338;SDS011;9295;44.484;11.240;2023-06-19T12:40:18;5.80;;;4.83;;
18338;SDS011;9295;44.484;11.240;2023-06-19T12:42:47;11.83;;;5.37;;
18338;SDS011;9295;44.484;11.240;2023-06-19T12:45:17;9.30;;;4.90;;
18338;SDS011;9295;44.484;11.240;2023-06-19T12:47:47;7.60;;;4.87;;
18338;SDS011;9295;44.484;11.240;2023-06-19T12:50:15;7.00;;;4.63;;
18338;SDS011;9295;44.484;11.240;2023-06-19T12:52:44;6.43;;;4.87;;
18338;SDS011;9295;44.484;11.240;2023-06-19T12:55:13;5.90;;;4.40;;
18338;SDS011;9295;44.484;11.240;2023-06-19T12:57:42;5.87;;;4.70;;
18338;SDS011;9295;44.484;11.240;2023-06-19T13:00:12;8.23;;;5.50;;
18338;SDS011;9295;44.484;11.240;2023-06-19T13:02:41;6.80;;;4.73;;
18338;SDS011;9295;44.484;11.240;2023-06-19T13:05:12;9.33;;;5.30;;
18338;SDS011;9295;44.484;11.240;2023-06-19T13:07:41;6.40;;;4.70;;
18338;SDS011;9295;44.484;11.240;2023-06-19T13:10:10;10.30;;;4.97;;
18338;SDS011;9295;44.484;11.240;2023-06-19T13:12:38;9.30;;;4.80;;
18338;SDS011;9295;44.484;11.240;2023-06-19T13:15:08;7.50;;;4.67;;
18338;SDS011;9295;44.484;11.240;2023-06-19T13:17:37;6.00;;;4.27;;
18338;SDS011;9295;44.484;11.240;2023-06-19T13:20:06;7.17;;;5.00;;
18338;SDS011;9295;44.484;11.240;2023-06-19T13:22:37;9.27;;;4.70;;
18338;SDS011;9295;44.484;11.240;2023-06-19T13:25:06;10.83;;;4.93;;
18338;SDS011;9295;44.484;11.240;2023-06-19T13:27:35;6.40;;;4.27;;
18338;SDS011;9295;44.484;11.240;2023-06-19T13:30:05;9.17;;;4.93;;
18338;SDS011;9295;44.484;11.240;2023-06-19T13:32:36;7.13;;;5.13;;
18338;SDS011;9295;44.484;11.240;2023-06-19T13:35:06;8.70;;;5.00;;
18338;SDS011;9295;44.484;11.240;2023-06-19T13:37:36;9.10;;;4.90;;
18338;SDS011;9295;44.484;11.240;2023-06-19T13:40:07;6.00;;;4.47;;
18338;SDS011;9295;44.484;11.240;2023-06-19T13:42:37;10.17;;;4.50;;
18338;SDS011;9295;44.484;11.240;2023-06-19T13:45:06;7.90;;;4.83;;
18338;SDS011;9295;44.484;11.240;2023-06-19T13:47:35;8.07;;;5.53;;
18338;SDS011;9295;44.484;11.240;2023-06-19T13:50:04;6.90;;;4.90;;
18338;SDS011;9295;44.484;11.240;2023-06-19T13:52:34;6.10;;;5.03;;
18338;SDS011;9295;44.484;11.240;2023-06-19T13:55:05;6.97;;;4.80;;
18338;SDS011;9295;44.484;11.240;2023-06-19T13:57:34;6.70;;;5.10;;
18338;SDS011;9295;44.484;11.240;2023-06-19T14:00:04;6.93;;;4.60;;
18338;SDS011;9295;44.484;11.240;2023-06-19T14:02:40;8.13;;;5.20;;
18338;SDS011;9295;44.484;11.240;2023-06-19T14:05:09;8.20;;;5.20;;
18338;SDS011;9295;44.484;11.240;2023-06-19T14:07:40;6.60;;;4.60;;
18338;SDS011;9295;44.484;11.240;2023-06-19T14:10:11;7.50;;;5.23;;
18338;SDS011;9295;44.484;11.240;2023-06-19T14:12:40;8.10;;;5.20;;
18338;SDS011;9295;44.484;11.240;2023-06-19T14:15:09;6.00;;;4.80;;
18338;SDS011;9295;44.484;11.240;2023-06-19T14:17:38;8.93;;;5.47;;
18338;SDS011;9295;44.484;11.240;2023-06-19T14:20:10;9.13;;;5.13;;
18338;SDS011;9295;44.484;11.240;2023-06-19T14:22:39;8.43;;;4.50;;
18338;SDS011;9295;44.484;11.240;2023-06-19T14:25:08;7.67;;;5.67;;
18338;SDS011;9295;44.484;11.240;2023-06-19T14:27:39;8.30;;;5.90;;
18338;SDS011;9295;44.484;11.240;2023-06-19T14:30:08;7.13;;;4.83;;
18338;SDS011;9295;44.484;11.240;2023-06-19T14:32:37;13.47;;;5.50;;
18338;SDS011;9295;44.484;11.240;2023-06-19T14:35:06;7.20;;;5.03;;
18338;SDS011;9295;44.484;11.240;2023-06-19T14:37:35;12.80;;;5.50;;
18338;SDS011;9295;44.484;11.240;2023-06-19T14:40:05;8.07;;;4.77;;
18338;SDS011;9295;44.484;11.240;2023-06-19T14:42:36;6.80;;;4.77;;
18338;SDS011;9295;44.484;11.240;2023-06-19T14:45:05;8.53;;;4.70;;
18338;SDS011;9295;44.484;11.240;2023-06-19T14:47:34;8.50;;;4.50;;
18338;SDS011;9295;44.484;11.240;2023-06-19T14:50:03;5.67;;;4.10;;
18338;SDS011;9295;44.484;11.240;2023-06-19T14:52:33;6.60;;;4.53;;
18338;SDS011;9295;44.484;11.240;2023-06-19T14:55:01;7.00;;;5.10;;
18338;SDS011;9295;44.484;11.240;2023-06-19T14:57:30;5.83;;;4.20;;
18338;SDS011;9295;44.484;11.240;2023-06-19T15:00:00;6.27;;;5.00;;